Time;durP1;ratioP1;P1;durP2;ratioP2;P2;SDS_P1;SDS_P2;PMS_P1;PMS_P2;Temp;Humidity;BMP_temperature;BMP_pressure;BME280_temperature;BME280_humidity;BME280_pressure;Samples;Min_cycle;Max_cycle;Signal;HPM_P1;HPM_P2
2023/03/09 00:01:38;;;;;;;34.33;1.60;;;6.00;99.90;;;;;;4958854;28;20043;-80
2023/03/09 00:04:04;;;;;;;0.38;0.38;;;6.00;99.90;;;;;;4983314;28;20066;-78
2023/03/09 00:06:30;;;;;;;3.45;0.30;;;6.00;99.90;;;;;;4974999;28;20092;-80
2023/03/09 00:08:56;;;;;;;70.15;4.80;;;6.00;99.90;;;;;;4963695;28;20034;-79
2023/03/09 00:11:22;;;;;;;59.95;4.40;;;6.00;99.90;;;;;;4971595;28;20035;-79
2023/03/09 00:13:49;;;;;;;69.28;3.45;;;6.00;99.90;;;;;;4953672;28;20030;-79
2023/03/09 00:16:21;;;;;;;57.17;2.40;;;6.00;99.90;;;;;;4973945;28;20031;-79
2023/03/09 00:18:47;;;;;;;25.50;1.33;;;6.00;99.90;;;;;;4963827;28;20037;-79
2023/03/09 00:21:34;;;;;;;19.17;0.75;;;6.00;99.90;;;;;;4976664;28;20106;-79
2023/03/09 00:24:06;;;;;;;0.77;0.30;;;6.00;99.90;;;;;;4977178;28;20065;-79
2023/03/09 00:26:34;;;;;;;0.93;0.47;;;6.00;99.90;;;;;;4961064;28;20086;-79
2023/03/09 00:29:00;;;;;;;0.40;0.40;;;6.00;99.90;;;;;;4982377;28;20035;-79
2023/03/09 00:31:26;;;;;;;0.57;0.57;;;6.00;99.90;;;;;;4980439;28;20041;-80
2023/03/09 00:33:52;;;;;;;0.63;0.63;;;6.10;99.90;;;;;;4952150;28;20051;-78
2023/03/09 00:36:18;;;;;;;0.45;0.45;;;6.10;99.90;;;;;;4967803;28;20088;-79
2023/03/09 00:38:50;;;;;;;1.02;0.70;;;6.10;99.90;;;;;;4967987;28;20041;-79
2023/03/09 00:41:16;;;;;;;0.55;0.55;;;6.10;99.90;;;;;;4977447;28;20459;-79
2023/03/09 00:43:42;;;;;;;1.92;0.80;;;6.10;99.90;;;;;;4963489;28;20034;-79
2023/03/09 00:46:08;;;;;;;1.13;0.80;;;6.10;99.90;;;;;;4946920;28;20034;-80
2023/03/09 00:48:36;;;;;;;1.17;0.77;;;6.10;99.90;;;;;;4950178;28;20102;-80
2023/03/09 00:51:02;;;;;;;0.88;0.80;;;6.10;99.90;;;;;;4985684;28;20097;-80
2023/03/09 00:53:28;;;;;;;0.95;0.75;;;6.10;99.90;;;;;;4977286;28;20031;-80
2023/03/09 00:55:54;;;;;;;0.80;0.60;;;6.20;99.90;;;;;;4981675;28;20109;-80
2023/03/09 00:58:19;;;;;;;0.60;0.60;;;6.20;99.90;;;;;;4963046;28;20150;-80
2023/03/09 01:00:45;;;;;;;0.50;0.50;;;6.20;99.90;;;;;;4943482;29;20488;-80
2023/03/09 01:03:11;;;;;;;0.40;0.40;;;6.20;99.90;;;;;;4986085;28;20117;-79
2023/03/09 01:05:37;;;;;;;0.63;0.63;;;6.20;99.90;;;;;;4966539;28;20024;-80
2023/03/09 01:08:04;;;;;;;1.05;0.50;;;6.20;99.90;;;;;;4978494;28;20574;-80
2023/03/09 01:10:30;;;;;;;0.47;0.45;;;6.20;99.90;;;;;;4980397;28;21184;-80
2023/03/09 01:12:56;;;;;;;0.57;0.45;;;6.20;99.90;;;;;;4976847;28;20042;-79
2023/03/09 01:15:22;;;;;;;0.57;0.57;;;6.20;99.90;;;;;;4980931;28;20035;-81
2023/03/09 01:17:48;;;;;;;0.63;0.52;;;6.20;99.90;;;;;;4963866;28;20050;-79
2023/03/09 01:20:14;;;;;;;0.80;0.80;;;6.20;99.90;;;;;;4972804;28;20114;-81
2023/03/09 01:22:40;;;;;;;1.20;1.00;;;6.20;99.90;;;;;;4969310;28;20034;-80
2023/03/09 01:25:06;;;;;;;1.00;0.80;;;6.20;99.90;;;;;;4973502;28;20517;-81
2023/03/09 01:27:32;;;;;;;1.40;1.30;;;6.20;99.90;;;;;;4948192;28;20046;-80
2023/03/09 01:29:59;;;;;;;1.33;1.15;;;6.20;99.90;;;;;;4969945;28;20113;-81
2023/03/09 01:32:25;;;;;;;2.03;1.60;;;6.30;99.90;;;;;;4955440;28;20094;-80
2023/03/09 01:34:52;;;;;;;2.47;1.90;;;6.30;99.90;;;;;;4975308;28;20046;-81
2023/03/09 01:37:18;;;;;;;2.97;1.88;;;6.30;99.90;;;;;;4964134;28;20034;-81
2023/03/09 01:39:44;;;;;;;3.28;2.20;;;6.30;99.90;;;;;;4956179;28;20137;-80
2023/03/09 01:42:12;;;;;;;3.55;2.10;;;6.40;99.90;;;;;;4953462;28;20041;-81
2023/03/09 01:44:40;;;;;;;2.88;2.33;;;6.40;99.90;;;;;;4971334;28;20061;-81
2023/03/09 01:47:06;;;;;;;3.95;2.10;;;6.40;99.90;;;;;;4966703;28;20033;-81
2023/03/09 01:49:50;;;;;;;4.18;2.60;;;6.40;99.90;;;;;;4982907;28;20031;-81
2023/03/09 01:52:25;;;;;;;2.65;2.20;;;6.40;99.90;;;;;;4965710;28;20058;-82
2023/03/09 01:55:08;;;;;;;3.10;2.60;;;6.40;99.90;;;;;;4966524;28;20062;-82
2023/03/09 01:57:38;;;;;;;6.88;2.45;;;6.40;99.90;;;;;;4939230;28;20790;-81
2023/03/09 02:00:14;;;;;;;3.17;2.72;;;6.50;99.90;;;;;;4959821;28;20399;-81
2023/03/09 02:02:56;;;;;;;3.60;2.80;;;6.40;99.90;;;;;;4978538;28;20026;-82
2023/03/09 02:05:41;;;;;;;7.35;2.78;;;6.50;99.90;;;;;;4967176;28;20474;-79
2023/03/09 02:08:09;;;;;;;5.13;2.73;;;6.50;99.90;;;;;;4958087;28;20057;-81
2023/03/09 02:10:44;;;;;;;5.53;2.85;;;6.50;99.90;;;;;;4966585;28;20113;-82
2023/03/09 02:13:15;;;;;;;3.65;2.63;;;6.50;99.90;;;;;;4958123;28;20033;-80
2023/03/09 02:15:41;;;;;;;3.97;2.80;;;6.50;99.90;;;;;;4945558;28;20038;-80
2023/03/09 02:18:08;;;;;;;2.85;2.35;;;6.60;99.90;;;;;;4965367;28;20399;-80
2023/03/09 02:21:08;;;;;;;3.95;2.33;;;6.60;99.90;;;;;;4970895;28;20026;-81
2023/03/09 02:23:51;;;;;;;30.60;3.83;;;6.60;99.90;;;;;;4969162;28;20126;-81
2023/03/09 02:26:38;;;;;;;3.58;2.20;;;6.70;99.90;;;;;;4962861;28;20058;-82
2023/03/09 02:29:04;;;;;;;2.78;1.95;;;6.80;99.90;;;;;;4958732;28;20031;-81
2023/03/09 02:31:30;;;;;;;3.00;1.77;;;6.80;99.90;;;;;;4949805;28;20038;-80
2023/03/09 02:33:56;;;;;;;1.90;1.40;;;6.80;99.90;;;;;;4952674;28;20026;-82
2023/03/09 02:36:23;;;;;;;1.85;1.20;;;6.90;99.90;;;;;;4931422;28;20039;-81
2023/03/09 02:38:55;;;;;;;1.67;0.95;;;6.90;99.90;;;;;;4967655;28;20027;-80
2023/03/09 02:41:21;;;;;;;0.65;0.60;;;6.90;99.90;;;;;;4954759;28;20081;-80
2023/03/09 02:43:54;;;;;;;9.70;1.38;;;7.00;99.90;;;;;;4971294;28;20030;-80
2023/03/09 02:46:20;;;;;;;59.38;3.15;;;7.00;99.90;;;;;;4976924;28;20026;-80
2023/03/09 02:48:46;;;;;;;0.60;0.60;;;7.00;99.90;;;;;;4955453;28;20365;-79
2023/03/09 02:51:12;;;;;;;0.90;0.50;;;7.00;99.90;;;;;;4950942;28;20122;-79
2023/03/09 02:53:38;;;;;;;0.40;0.40;;;7.00;99.90;;;;;;4960693;28;20082;-80
2023/03/09 02:56:04;;;;;;;0.40;0.40;;;7.00;99.90;;;;;;4925021;29;20035;-80
2023/03/09 02:58:32;;;;;;;0.98;0.63;;;6.90;99.90;;;;;;4962070;28;20054;-79
2023/03/09 03:00:58;;;;;;;3.58;0.60;;;6.90;99.90;;;;;;4922990;28;20030;-81
2023/03/09 03:03:24;;;;;;;0.63;0.60;;;7.00;99.90;;;;;;4969064;28;20066;-81
2023/03/09 03:05:51;;;;;;;0.50;0.50;;;7.00;99.90;;;;;;4947044;28;20622;-81
2023/03/09 03:08:17;;;;;;;0.55;0.55;;;6.90;99.90;;;;;;4951340;28;20427;-82
2023/03/09 03:10:43;;;;;;;0.85;0.50;;;6.90;99.90;;;;;;4965975;28;20027;-80
2023/03/09 03:13:10;;;;;;;0.60;0.60;;;6.90;99.90;;;;;;4956064;28;20134;-80
2023/03/09 03:15:36;;;;;;;1.83;0.60;;;6.90;99.90;;;;;;4949135;28;20085;-79
2023/03/09 03:18:02;;;;;;;4.88;0.70;;;6.90;99.90;;;;;;4958366;28;20125;-82
2023/03/09 03:20:29;;;;;;;1.20;0.50;;;6.80;99.90;;;;;;4952781;28;20042;-81
2023/03/09 03:22:56;;;;;;;1.55;0.40;;;6.90;99.90;;;;;;4960570;28;20031;-80
2023/03/09 03:25:28;;;;;;;108.00;7.55;;;6.80;99.90;;;;;;4961484;28;20043;-81
2023/03/09 03:27:58;;;;;;;0.57;0.43;;;6.80;99.90;;;;;;4961059;28;20495;-81
2023/03/09 03:30:24;;;;;;;0.30;0.30;;;6.80;99.90;;;;;;4950625;28;20034;-80
2023/03/09 03:32:53;;;;;;;5.47;0.60;;;6.80;99.90;;;;;;4966006;28;20034;-80
2023/03/09 03:35:22;;;;;;;178.77;9.75;;;6.70;99.90;;;;;;4969289;28;20038;-81
2023/03/09 03:37:49;;;;;;;10.52;0.68;;;6.70;99.90;;;;;;4965920;28;20603;-80
2023/03/09 03:40:16;;;;;;;0.73;0.73;;;6.70;99.90;;;;;;4966360;28;20145;-82
2023/03/09 03:42:46;;;;;;;2.30;0.30;;;6.70;99.90;;;;;;4952196;28;20030;-81
2023/03/09 03:45:14;;;;;;;22.70;1.60;;;6.70;99.90;;;;;;4965526;28;20035;-81
2023/03/09 03:47:40;;;;;;;2.47;0.50;;;6.60;99.90;;;;;;4960287;28;20027;-80
2023/03/09 03:50:07;;;;;;;7.82;0.70;;;6.60;99.90;;;;;;4942655;28;20030;-81
2023/03/09 03:52:40;;;;;;;0.35;0.20;;;6.60;99.90;;;;;;4978375;28;20027;-81
2023/03/09 03:55:07;;;;;;;0.10;0.10;;;6.60;99.90;;;;;;4964135;28;20027;-81
2023/03/09 03:57:33;;;;;;;0.20;0.10;;;6.60;99.90;;;;;;4977371;28;20042;-80
2023/03/09 03:59:59;;;;;;;0.20;0.10;;;6.60;99.90;;;;;;4971733;28;20030;-81
2023/03/09 04:02:25;;;;;;;0.10;0.10;;;6.50;99.90;;;;;;4963076;28;20031;-80
2023/03/09 04:04:52;;;;;;;4.82;0.30;;;6.50;99.90;;;;;;4981169;28;20126;-80
2023/03/09 04:07:17;;;;;;;2.08;0.10;;;6.50;99.90;;;;;;4983418;28;20057;-80
2023/03/09 04:09:43;;;;;;;0.80;0.10;;;6.40;99.90;;;;;;4951907;28;20023;-80
2023/03/09 04:12:10;;;;;;;0.52;0.10;;;6.50;99.90;;;;;;4988419;28;20037;-79
2023/03/09 04:14:39;;;;;;;0.10;0.00;;;6.40;99.90;;;;;;4969887;28;20038;-79
2023/03/09 04:17:08;;;;;;;3.00;0.30;;;6.40;99.90;;;;;;4962309;28;20030;-80
2023/03/09 04:19:34;;;;;;;0.20;0.10;;;6.40;99.90;;;;;;4962671;28;20054;-80
2023/03/09 04:22:00;;;;;;;23.23;1.10;;;6.40;99.90;;;;;;4968490;28;20038;-81
2023/03/09 04:24:26;;;;;;;38.17;1.65;;;6.40;99.90;;;;;;4974680;28;20045;-80
2023/03/09 04:26:52;;;;;;;18.80;0.90;;;6.40;99.90;;;;;;4961712;28;20150;-80
2023/03/09 04:29:36;;;;;;;4.05;0.32;;;6.40;99.90;;;;;;4960867;28;20033;-80
2023/03/09 04:32:03;;;;;;;51.10;1.60;;;6.40;99.90;;;;;;4967614;28;20035;-79
2023/03/09 04:34:29;;;;;;;2.45;0.15;;;6.40;99.90;;;;;;4982216;28;20031;-80
2023/03/09 04:36:55;;;;;;;2.47;0.05;;;6.40;99.90;;;;;;4978953;28;20520;-79
2023/03/09 04:39:23;;;;;;;10.05;0.38;;;6.30;99.90;;;;;;4985027;28;20038;-80
2023/03/09 04:41:49;;;;;;;6.97;0.55;;;6.30;99.90;;;;;;4985342;28;20043;-81
2023/03/09 04:44:15;;;;;;;1.00;0.20;;;6.30;99.90;;;;;;4983640;28;20041;-81
2023/03/09 04:46:42;;;;;;;53.00;1.63;;;6.30;99.90;;;;;;4957759;28;20058;-81
2023/03/09 04:49:10;;;;;;;36.75;1.70;;;6.30;99.90;;;;;;4969733;28;20026;-81
2023/03/09 04:51:39;;;;;;;10.70;0.50;;;6.30;99.90;;;;;;4977187;28;20051;-83
2023/03/09 04:54:05;;;;;;;8.60;0.22;;;6.30;99.90;;;;;;4980184;28;20035;-81
2023/03/09 04:56:31;;;;;;;0.00;0.00;;;6.30;99.90;;;;;;4960104;28;20125;-81
2023/03/09 04:59:03;;;;;;;3.35;0.20;;;6.30;99.90;;;;;;4983760;28;20031;-81
2023/03/09 05:01:29;;;;;;;15.85;0.60;;;6.40;99.90;;;;;;4958381;28;20038;-82
2023/03/09 05:03:58;;;;;;;0.35;0.20;;;6.40;99.90;;;;;;4965355;28;20388;-81
2023/03/09 05:06:24;;;;;;;0.50;0.20;;;6.40;99.90;;;;;;4963342;28;20035;-81
2023/03/09 05:08:52;;;;;;;0.17;0.10;;;6.50;99.90;;;;;;4951882;28;20514;-81
2023/03/09 05:11:18;;;;;;;3.78;0.15;;;6.50;99.90;;;;;;4985142;28;20045;-82
2023/03/09 05:13:47;;;;;;;0.20;0.20;;;6.50;99.90;;;;;;4967549;28;20022;-80
2023/03/09 05:16:16;;;;;;;1.98;0.20;;;6.50;99.90;;;;;;4961145;28;20419;-80
2023/03/09 05:18:47;;;;;;;0.10;0.10;;;6.60;99.90;;;;;;4945485;28;20082;-80
2023/03/09 05:21:16;;;;;;;4.53;0.20;;;6.60;99.90;;;;;;4943208;28;20027;-81
2023/03/09 05:23:43;;;;;;;4.28;0.17;;;6.60;99.90;;;;;;4950639;28;20061;-81
2023/03/09 05:26:11;;;;;;;22.98;0.85;;;6.60;99.90;;;;;;4958515;28;20038;-80
2023/03/09 05:28:38;;;;;;;41.88;1.65;;;6.60;99.90;;;;;;4936268;28;20034;-81
2023/03/09 05:31:09;;;;;;;0.15;0.10;;;6.60;99.90;;;;;;4976085;28;20462;-81
2023/03/09 05:33:35;;;;;;;0.40;0.20;;;6.60;99.90;;;;;;4963487;28;20045;-81
2023/03/09 05:36:13;;;;;;;0.10;0.10;;;6.60;99.90;;;;;;4970768;28;20031;-80
2023/03/09 05:38:38;;;;;;;0.25;0.20;;;6.60;99.90;;;;;;4959608;28;20427;-80
2023/03/09 05:41:05;;;;;;;0.28;0.20;;;6.60;99.90;;;;;;4972913;28;20123;-81
2023/03/09 05:43:31;;;;;;;0.22;0.22;;;6.60;99.90;;;;;;4970418;28;20054;-80
2023/03/09 05:45:57;;;;;;;0.57;0.35;;;6.60;99.90;;;;;;4964692;28;20058;-80
2023/03/09 05:48:23;;;;;;;0.30;0.30;;;6.60;99.90;;;;;;4963521;28;20046;-80
2023/03/09 05:50:49;;;;;;;0.57;0.50;;;6.60;99.90;;;;;;4972370;28;20117;-80
2023/03/09 05:53:15;;;;;;;1.58;0.43;;;6.70;99.90;;;;;;4977109;28;20054;-80
2023/03/09 05:55:43;;;;;;;0.40;0.40;;;6.70;99.90;;;;;;4954420;28;20031;-80
2023/03/09 05:58:09;;;;;;;1.02;0.40;;;6.70;99.90;;;;;;4976865;28;20030;-80
2023/03/09 06:00:35;;;;;;;0.40;0.40;;;6.70;99.90;;;;;;4994104;28;20395;-80
2023/03/09 06:03:04;;;;;;;0.52;0.50;;;6.70;99.90;;;;;;4963719;28;20118;-80
2023/03/09 06:05:47;;;;;;;0.80;0.63;;;6.70;99.90;;;;;;4968997;28;20031;-79
2023/03/09 06:08:14;;;;;;;1.10;0.50;;;6.70;99.90;;;;;;4960755;28;20041;-80
2023/03/09 06:10:43;;;;;;;2.08;0.70;;;6.70;99.90;;;;;;4983092;28;20041;-79
2023/03/09 06:13:11;;;;;;;0.57;0.55;;;6.80;99.90;;;;;;4948397;28;20415;-79
2023/03/09 06:15:37;;;;;;;0.52;0.52;;;6.80;99.90;;;;;;4929078;28;20023;-81
2023/03/09 06:18:04;;;;;;;0.73;0.73;;;6.70;99.90;;;;;;4947279;28;20146;-81
2023/03/09 06:20:30;;;;;;;4.88;0.90;;;6.80;99.90;;;;;;4969870;28;20035;-80
2023/03/09 06:22:59;;;;;;;4.57;0.95;;;6.80;99.90;;;;;;4949515;28;20058;-81
2023/03/09 06:25:26;;;;;;;3.05;0.57;;;6.70;99.90;;;;;;4957050;28;20563;-82
2023/03/09 06:27:52;;;;;;;0.98;0.80;;;6.80;99.90;;;;;;4955006;28;20113;-81
2023/03/09 06:30:21;;;;;;;1.60;0.90;;;6.80;99.90;;;;;;4950961;28;20031;-82
2023/03/09 06:32:48;;;;;;;1.17;1.08;;;6.80;99.90;;;;;;4970701;28;20026;-79
2023/03/09 06:35:14;;;;;;;2.60;1.00;;;6.80;99.90;;;;;;4949360;28;20560;-80
2023/03/09 06:37:41;;;;;;;1.52;1.20;;;6.80;99.90;;;;;;4961353;28;20027;-82
2023/03/09 06:40:11;;;;;;;1.17;1.08;;;6.80;99.90;;;;;;4957247;28;20062;-80
2023/03/09 06:42:37;;;;;;;4.82;1.23;;;6.90;99.90;;;;;;4959401;28;20066;-81
2023/03/09 06:45:05;;;;;;;2.33;1.13;;;6.80;99.90;;;;;;4973910;28;20031;-80
2023/03/09 06:47:31;;;;;;;2.40;1.10;;;6.80;99.90;;;;;;4956964;28;20044;-79
2023/03/09 06:50:04;;;;;;;1.83;1.38;;;6.80;99.90;;;;;;4979177;28;20026;-79
2023/03/09 06:52:31;;;;;;;2.00;1.20;;;6.90;99.90;;;;;;4968572;28;20053;-79
2023/03/09 06:54:58;;;;;;;1.90;0.90;;;6.80;99.90;;;;;;4972292;28;20025;-79
2023/03/09 06:57:25;;;;;;;1.95;1.02;;;6.90;99.90;;;;;;4962159;28;20030;-80
2023/03/09 06:59:51;;;;;;;2.42;1.13;;;6.90;99.90;;;;;;4972709;28;20054;-80
2023/03/09 07:02:17;;;;;;;2.03;1.20;;;6.90;99.90;;;;;;4993450;28;20113;-79
2023/03/09 07:04:43;;;;;;;1.20;0.90;;;6.90;99.90;;;;;;4969295;28;20050;-80
2023/03/09 07:07:08;;;;;;;2.25;1.10;;;7.00;99.90;;;;;;4984815;28;20026;-80
2023/03/09 07:09:35;;;;;;;1.95;1.00;;;7.10;99.90;;;;;;4973203;28;20062;-80
2023/03/09 07:12:01;;;;;;;1.63;0.90;;;7.20;99.90;;;;;;4970745;28;20086;-79
2023/03/09 07:14:27;;;;;;;1.10;1.00;;;7.30;99.90;;;;;;4992129;28;20030;-81
2023/03/09 07:16:54;;;;;;;13.15;1.67;;;7.40;99.90;;;;;;4990477;28;20035;-81
2023/03/09 07:19:21;;;;;;;0.93;0.90;;;7.50;99.90;;;;;;4983381;28;20062;-80
2023/03/09 07:21:47;;;;;;;1.75;1.00;;;7.40;99.90;;;;;;4980686;28;20038;-81
2023/03/09 07:24:13;;;;;;;1.17;0.70;;;7.40;99.90;;;;;;4974615;28;20041;-80
2023/03/09 07:26:39;;;;;;;1.85;0.80;;;7.40;99.90;;;;;;4959470;28;20057;-80
2023/03/09 07:29:05;;;;;;;1.05;0.63;;;7.40;99.90;;;;;;4981357;28;20383;-80
2023/03/09 07:31:31;;;;;;;0.60;0.60;;;7.50;99.90;;;;;;4995698;28;20542;-80
2023/03/09 07:33:58;;;;;;;0.80;0.60;;;7.50;99.90;;;;;;4984754;28;20062;-81
2023/03/09 07:36:25;;;;;;;0.70;0.63;;;7.50;99.90;;;;;;4974983;28;20073;-81
2023/03/09 07:38:51;;;;;;;2.63;0.73;;;7.60;99.90;;;;;;4993533;28;20015;-79
2023/03/09 07:41:17;;;;;;;1.35;0.60;;;7.60;99.90;;;;;;4982247;28;20042;-80
2023/03/09 07:43:44;;;;;;;2.47;0.55;;;7.70;99.90;;;;;;4965963;28;20407;-80
2023/03/09 07:46:18;;;;;;;1.30;0.77;;;7.70;99.90;;;;;;4976926;28;20041;-80
2023/03/09 07:48:44;;;;;;;0.95;0.80;;;7.80;99.90;;;;;;4983618;28;20038;-80
2023/03/09 07:51:12;;;;;;;5.10;0.98;;;7.80;99.90;;;;;;4994442;28;20022;-81
2023/03/09 07:53:39;;;;;;;0.77;0.63;;;7.80;99.90;;;;;;4982950;28;20082;-81
2023/03/09 07:56:07;;;;;;;0.95;0.73;;;7.80;99.90;;;;;;4978901;28;20034;-80
2023/03/09 07:58:35;;;;;;;1.23;0.70;;;7.70;99.90;;;;;;4979738;28;20697;-82
2023/03/09 08:01:03;;;;;;;1.20;0.80;;;7.70;99.90;;;;;;4985322;28;20031;-80
2023/03/09 08:03:29;;;;;;;0.60;0.60;;;7.70;99.90;;;;;;4948562;28;20039;-83
2023/03/09 08:05:55;;;;;;;1.98;0.70;;;7.70;99.90;;;;;;4981227;28;20368;-80
2023/03/09 08:08:22;;;;;;;0.63;0.40;;;7.70;99.90;;;;;;4985578;28;20176;-80
2023/03/09 08:10:49;;;;;;;1.48;0.40;;;7.70;99.90;;;;;;4966371;28;20053;-82
2023/03/09 08:13:15;;;;;;;1.05;0.32;;;7.70;99.90;;;;;;4963413;28;20039;-80
2023/03/09 08:15:41;;;;;;;0.30;0.30;;;7.70;99.90;;;;;;4945231;28;20046;-82
2023/03/09 08:18:07;;;;;;;0.40;0.30;;;7.70;99.90;;;;;;4964280;28;20042;-81
2023/03/09 08:20:33;;;;;;;6.13;0.70;;;7.70;99.90;;;;;;4967859;28;20042;-81
2023/03/09 08:22:59;;;;;;;0.28;0.20;;;7.70;99.90;;;;;;4947352;28;20057;-83
2023/03/09 08:25:25;;;;;;;0.55;0.28;;;7.80;99.90;;;;;;4965027;28;20574;-82
2023/03/09 08:27:51;;;;;;;1.55;0.40;;;7.80;99.90;;;;;;4963793;28;20030;-81
2023/03/09 08:30:20;;;;;;;0.95;0.40;;;7.80;99.90;;;;;;4983671;28;20406;-81
2023/03/09 08:32:51;;;;;;;1.45;0.90;;;7.70;99.90;;;;;;4935531;28;20117;-80
2023/03/09 08:35:23;;;;;;;3.33;0.90;;;7.70;99.90;;;;;;4974883;28;20133;-82
2023/03/09 08:37:49;;;;;;;6.28;1.00;;;7.70;99.90;;;;;;4946762;28;20040;-80
2023/03/09 08:40:15;;;;;;;2.35;1.10;;;7.60;99.90;;;;;;4976792;28;20145;-78
2023/03/09 08:42:42;;;;;;;1.92;1.33;;;7.70;99.90;;;;;;4979978;28;20039;-80
2023/03/09 08:45:09;;;;;;;5.47;1.58;;;7.70;99.90;;;;;;4980685;28;20035;-80
2023/03/09 08:47:35;;;;;;;6.97;1.48;;;7.70;99.90;;;;;;4986648;28;20050;-80
2023/03/09 08:50:01;;;;;;;3.10;1.63;;;7.70;99.90;;;;;;4977350;28;20199;-80
2023/03/09 08:52:26;;;;;;;2.92;1.50;;;7.70;99.90;;;;;;4992603;28;20038;-80
2023/03/09 08:54:52;;;;;;;4.47;1.45;;;7.80;99.90;;;;;;4984783;28;20538;-80
2023/03/09 08:57:18;;;;;;;5.78;2.17;;;7.80;99.90;;;;;;4968075;28;20027;-80
2023/03/09 08:59:46;;;;;;;8.85;2.10;;;7.90;99.90;;;;;;4971718;28;20550;-80
2023/03/09 09:02:14;;;;;;;5.10;1.60;;;8.00;99.90;;;;;;4962082;28;20085;-79
2023/03/09 09:04:44;;;;;;;2.97;1.50;;;8.10;99.90;;;;;;4974048;28;20034;-80
2023/03/09 09:07:11;;;;;;;3.50;1.52;;;8.20;99.90;;;;;;4971291;28;20036;-79
2023/03/09 09:09:38;;;;;;;4.60;1.90;;;8.30;99.90;;;;;;4987641;28;20031;-80
2023/03/09 09:12:05;;;;;;;7.15;1.92;;;8.30;99.90;;;;;;4978668;28;20077;-80
2023/03/09 09:14:32;;;;;;;6.18;1.65;;;8.40;99.90;;;;;;4951761;28;20037;-80
2023/03/09 09:16:58;;;;;;;6.28;1.75;;;8.50;99.90;;;;;;4973645;28;20045;-80
2023/03/09 09:19:24;;;;;;;2.55;1.58;;;8.50;99.90;;;;;;4990947;28;20517;-81
2023/03/09 09:21:52;;;;;;;4.15;1.17;;;8.60;99.90;;;;;;4982894;28;20031;-80
2023/03/09 09:24:18;;;;;;;3.13;1.20;;;8.50;99.90;;;;;;4971206;28;20142;-80
2023/03/09 09:26:45;;;;;;;3.47;1.27;;;8.40;99.90;;;;;;4961192;28;20093;-80
2023/03/09 09:29:11;;;;;;;2.75;1.20;;;8.30;99.90;;;;;;4985569;28;20464;-81
2023/03/09 09:31:38;;;;;;;6.25;1.20;;;8.20;99.90;;;;;;4965419;28;20109;-81
2023/03/09 09:34:06;;;;;;;1.45;1.20;;;8.10;99.90;;;;;;4957553;28;20113;-79
2023/03/09 09:36:34;;;;;;;3.75;1.08;;;8.10;99.90;;;;;;4961266;28;20030;-81
2023/03/09 09:39:02;;;;;;;6.40;1.50;;;8.00;99.90;;;;;;4987683;28;20085;-79
2023/03/09 09:41:42;;;;;;;5.75;1.20;;;7.90;99.90;;;;;;4980534;28;20026;-80
2023/03/09 09:44:14;;;;;;;5.18;1.38;;;7.80;99.90;;;;;;4990555;28;20019;-80
2023/03/09 09:46:41;;;;;;;2.88;1.40;;;7.90;99.90;;;;;;4977868;28;20037;-81
2023/03/09 09:49:09;;;;;;;2.95;1.55;;;7.90;99.90;;;;;;4975816;28;20062;-81
2023/03/09 09:52:05;;;;;;;2.88;1.00;;;7.90;99.90;;;;;;4958818;28;20032;-80
2023/03/09 09:54:41;;;;;;;;;;;7.90;99.90;;;;;;4984650;28;20038;-79
2023/03/09 09:57:38;;;;;;;4.90;1.33;;;8.00;99.90;;;;;;4963781;28;19910;-80
2023/03/09 10:00:34;;;;;;;4.68;1.15;;;8.00;99.90;;;;;;4974720;28;20038;-80
2023/03/09 10:03:12;;;;;;;1.20;0.95;;;8.00;99.90;;;;;;4988135;28;20031;-79
2023/03/09 10:05:50;;;;;;;2.97;1.27;;;8.00;99.90;;;;;;4986676;28;20468;-79
2023/03/09 10:08:43;;;;;;;3.60;1.55;;;8.00;99.90;;;;;;4967505;28;20042;-79
2023/03/09 10:11:26;;;;;;;6.20;1.55;;;7.90;99.90;;;;;;4961864;28;20027;-80
2023/03/09 10:14:08;;;;;;;4.13;1.40;;;7.90;99.90;;;;;;4975558;28;20037;-80
2023/03/09 10:16:38;;;;;;;3.53;1.38;;;8.00;99.90;;;;;;4976602;28;20027;-79
2023/03/09 10:19:13;;;;;;;3.85;1.20;;;7.90;99.90;;;;;;4961175;28;20026;-79
2023/03/09 10:21:59;;;;;;;2.67;1.27;;;8.00;99.90;;;;;;4963741;28;20027;-79
2023/03/09 10:24:34;;;;;;;3.63;1.40;;;8.00;99.90;;;;;;4980394;28;20063;-78
2023/03/09 10:27:04;;;;;;;4.85;1.60;;;8.00;99.90;;;;;;4976687;28;20034;-79
2023/03/09 10:29:59;;;;;;;4.38;1.63;;;8.10;99.90;;;;;;4959271;28;20030;-81
2023/03/09 10:32:37;;;;;;;3.88;1.45;;;8.20;99.90;;;;;;4975340;28;20029;-79
2023/03/09 10:35:38;;;;;;;3.10;1.40;;;8.30;99.90;;;;;;4939591;28;20035;-80
2023/03/09 10:38:04;;;;;;;4.25;1.35;;;8.40;99.90;;;;;;4948966;28;20034;-80
2023/03/09 10:40:36;;;;;;;6.88;1.30;;;8.40;99.90;;;;;;4962562;28;20045;-79
2023/03/09 10:43:04;;;;;;;2.42;1.30;;;8.40;99.90;;;;;;4958872;28;20018;-80
2023/03/09 10:45:32;;;;;;;2.90;1.20;;;8.40;99.90;;;;;;4920210;28;20023;-79
2023/03/09 10:48:04;;;;;;;3.45;1.08;;;8.40;99.90;;;;;;4956610;28;20043;-78
2023/03/09 10:50:32;;;;;;;4.13;1.30;;;8.50;99.90;;;;;;4975344;28;20577;-79
2023/03/09 10:53:23;;;;;;;1.92;1.00;;;8.50;99.90;;;;;;4959818;28;20077;-81
2023/03/09 10:55:51;;;;;;;5.20;1.00;;;8.50;99.90;;;;;;4968945;28;20030;-78
2023/03/09 10:58:21;;;;;;;1.42;0.90;;;8.50;99.90;;;;;;4962949;28;20264;-80
2023/03/09 11:00:52;;;;;;;1.95;1.20;;;8.50;99.90;;;;;;4962140;28;20577;-80
2023/03/09 11:03:24;;;;;;;4.45;1.30;;;8.50;99.90;;;;;;4948115;28;20517;-78
2023/03/09 11:05:49;;;;;;;4.93;1.00;;;8.50;99.90;;;;;;4976085;28;20049;-78
2023/03/09 11:08:27;;;;;;;4.53;1.00;;;8.50;99.90;;;;;;4978184;28;20546;-79
2023/03/09 11:11:09;;;;;;;1.65;0.70;;;8.50;99.90;;;;;;4962840;28;20031;-78
2023/03/09 11:13:35;;;;;;;2.38;0.68;;;8.50;99.90;;;;;;4968675;28;20031;-79
2023/03/09 11:16:17;;;;;;;1.65;0.80;;;8.50;99.90;;;;;;4943538;28;20033;-79
2023/03/09 11:18:43;;;;;;;1.15;0.60;;;8.50;99.90;;;;;;4974552;28;20049;-78
2023/03/09 11:21:19;;;;;;;2.67;0.63;;;8.50;99.90;;;;;;4945686;28;20464;-79
2023/03/09 11:23:49;;;;;;;1.00;0.50;;;8.60;99.90;;;;;;4985848;28;20055;-79
2023/03/09 11:26:15;;;;;;;2.78;0.45;;;8.60;99.90;;;;;;4979383;28;20046;-79
2023/03/09 11:28:47;;;;;;;2.03;0.70;;;8.60;99.90;;;;;;4978494;28;20045;-80
2023/03/09 11:31:18;;;;;;;0.63;0.63;;;8.60;99.90;;;;;;4985356;28;20076;-79
2023/03/09 11:33:45;;;;;;;4.60;0.60;;;8.50;99.90;;;;;;4944962;28;20031;-78
2023/03/09 11:36:19;;;;;;;0.70;0.52;;;8.50;99.90;;;;;;4959862;28;20058;-79
2023/03/09 11:38:46;;;;;;;1.58;0.70;;;8.50;99.90;;;;;;4987039;28;20045;-79
2023/03/09 11:41:19;;;;;;;0.88;0.70;;;8.50;99.90;;;;;;4973066;28;20037;-79
2023/03/09 11:43:51;;;;;;;1.77;0.52;;;8.50;99.90;;;;;;4971714;28;20451;-79
2023/03/09 11:46:19;;;;;;;1.98;0.65;;;8.50;99.90;;;;;;4959445;28;20042;-81
2023/03/09 11:48:52;;;;;;;2.58;0.70;;;8.50;99.90;;;;;;4967894;28;20027;-80
2023/03/09 11:51:26;;;;;;;2.70;0.65;;;8.50;99.90;;;;;;4984385;28;20034;-78
2023/03/09 11:54:06;;;;;;;1.38;0.60;;;8.60;99.90;;;;;;4976036;28;20040;-77
2023/03/09 11:56:38;;;;;;;1.38;0.55;;;8.60;99.90;;;;;;4968443;28;20487;-77
2023/03/09 11:59:15;;;;;;;3.25;0.70;;;8.60;99.90;;;;;;4971704;28;20030;-78
2023/03/09 12:01:55;;;;;;;2.97;0.60;;;8.50;99.90;;;;;;4957191;28;20516;-79
2023/03/09 12:04:21;;;;;;;1.60;0.60;;;8.50;99.90;;;;;;4973555;28;20106;-78
2023/03/09 12:06:52;;;;;;;1.50;0.60;;;8.50;99.90;;;;;;4972094;28;20122;-80
2023/03/09 12:09:41;;;;;;;2.97;0.70;;;8.50;99.90;;;;;;4972893;28;20029;-78
2023/03/09 12:12:25;;;;;;;2.13;0.80;;;8.50;99.90;;;;;;4976120;28;20023;-77
2023/03/09 12:15:04;;;;;;;3.30;0.60;;;8.50;99.90;;;;;;4965510;28;20019;-79
2023/03/09 12:17:42;;;;;;;1.45;0.70;;;8.50;99.90;;;;;;4973653;28;20977;-79
2023/03/09 12:20:39;;;;;;;0.98;0.82;;;8.50;99.90;;;;;;4981394;28;20038;-78
2023/03/09 12:23:36;;;;;;;3.33;0.70;;;8.50;99.90;;;;;;4964304;28;20074;-77
2023/03/09 12:26:19;;;;;;;4.28;0.95;;;8.50;99.90;;;;;;4965225;28;20254;-78
2023/03/09 12:28:56;;;;;;;3.50;0.85;;;8.50;99.90;;;;;;4978010;28;20042;-79
2023/03/09 12:31:34;;;;;;;2.75;0.85;;;8.60;99.90;;;;;;4976211;28;20030;-79
2023/03/09 12:33:59;;;;;;;4.07;1.02;;;8.60;99.90;;;;;;4975241;28;20018;-78
2023/03/09 12:36:31;;;;;;;1.58;0.77;;;8.70;99.90;;;;;;4970883;28;20035;-79
2023/03/09 12:39:33;;;;;;;4.95;1.30;;;8.80;99.90;;;;;;4954194;28;20093;-79
2023/03/09 12:42:08;;;;;;;1.52;0.90;;;8.90;99.90;;;;;;4954483;28;20051;-79
2023/03/09 12:44:46;;;;;;;3.60;0.70;;;8.90;99.90;;;;;;4964401;28;20042;-79
2023/03/09 12:47:33;;;;;;;3.67;1.00;;;8.80;99.90;;;;;;4974397;28;20039;-78
2023/03/09 12:50:00;;;;;;;4.85;1.13;;;8.90;99.90;;;;;;4976430;28;20081;-79
2023/03/09 12:52:44;;;;;;;4.85;1.10;;;8.80;99.90;;;;;;4976746;28;20546;-77
2023/03/09 12:55:12;;;;;;;3.70;1.10;;;8.90;99.90;;;;;;4958551;28;20526;-79
2023/03/09 12:57:38;;;;;;;4.03;0.98;;;8.90;99.90;;;;;;4954327;28;20050;-78
2023/03/09 13:00:29;;;;;;;5.78;0.95;;;9.00;99.90;;;;;;4976222;28;20035;-78
2023/03/09 13:03:14;;;;;;;5.05;1.23;;;9.10;99.90;;;;;;4951508;28;20053;-78
2023/03/09 13:05:43;;;;;;;3.20;1.10;;;9.20;99.90;;;;;;4949288;28;20035;-79
2023/03/09 13:08:33;;;;;;;2.90;0.90;;;9.30;99.90;;;;;;4947316;28;20038;-77
2023/03/09 13:11:20;;;;;;;3.63;0.90;;;9.40;99.90;;;;;;4954906;28;20031;-79